NASDAQ 100

29 544,16
61,84
0,21 %
<
Nachrichten
Marktberichte
Analysen
>
<
zugeh. Wertpapiere
Zertifikate
>

Hauptversammlungs-Kalender NASDAQ 100 Unternehmen

Datum Name Währung Dividende * Rendite in % *
29.04.27 ASML Holding NV NY Registered Shs USD 10,60 0,62
17.09.26 Take Two USD 0,00 0,00
25.08.26 Nebius USD 0,00 0,00
18.08.26 Microchip Technology Inc. USD 1,82 2,82
28.07.26 Linde plc USD 6,00 1,41
20.05.26 Rocket Lab Corporation Registered Shs USD 0,00 0,00
14.05.26 O Reilly Automotive Inc USD 0,00 0,00
13.05.26 AMD (Advanced Micro Devices) Inc. USD 0,00 0,00
13.05.26 Intel Corp. USD 0,00 0,00
13.05.26 Vertex Pharmaceuticals Inc. USD 0,00 0,00
12.05.26 CSX Corp. USD 0,52 1,43
12.05.26 IDEXX Laboratories USD 0,00 0,00
08.05.26 Marriott Inc. USD 2,64 0,85
08.05.26 Teradyne Inc. USD 0,48 0,25
07.05.26 Cadence Design Systems Inc. USD 0,00 0,00
07.05.26 GE HealthCare Technologies USD 0,14 0,17
06.05.26 PepsiCo Inc. USD 5,62 3,91
30.04.26 Gilead Sciences Inc. USD 3,16 2,57
30.04.26 Intuitive Surgical Inc USD 0,00 0,00
28.04.26 American Electric Power Co. Inc. USD 3,74 3,24
28.04.26 Constellation Energy Corp Registered Shs When Issued USD 1,55 0,44
28.04.26 Exelon Corp. USD 1,60 3,67
28.04.26 Paccar Inc. USD 1,32 1,21
23.04.26 Fastenal Co. USD 0,88 2,18
22.04.26 ASML Holding NV NY Registered Shs USD 7,47 0,70
20.04.26 Broadcom USD 2,36 0,64
16.04.26 Synopsys Inc. USD 0,00 0,00
16.04.26 Texas Instruments Inc. (TI) USD 5,50 3,17
15.04.26 Adobe Inc. USD 0,00 0,00
09.04.26 Ferrovial International SE Registered Shs EUR 0,94 1,71
12.03.26 Applied Materials Inc. USD 1,78 0,78
11.03.26 Analog Devices Inc. USD 3,89 1,66
24.02.26 Apple Inc. USD 1,02 0,40
22.01.26 Intuit Inc. USD 4,16 0,53
15.01.26 Costco Wholesale Corp. USD 4,92 0,52
15.01.26 Micron Technology Inc. USD 0,46 0,38
19.12.25 PDD Holdings (spons. ADRs) USD 0,00 0,00
16.12.25 Cisco Inc. USD 1,62 2,36
09.12.25 Palo Alto Networks Inc USD 0,00 0,00
05.12.25 Copart Inc. USD 0,00 0,00
05.12.25 Microsoft Corp. USD 3,32 0,67
20.11.25 Western Digital Corp. USD 0,10 0,16
19.11.25 Lumentum Holdings Inc USD 0,00 0,00
18.11.25 Sandisk Corp USD 0,00 0,00
12.11.25 Automatic Data Processing Inc. USD 6,02 1,95
05.11.25 KLA USD 0,68 0,75
04.11.25 Lam Research Corp. USD 0,92 0,95
28.10.25 Cintas Corp. USD 1,56 0,69
25.10.25 Seagate Technology USD 2,86 2,02
09.10.25 Paychex Inc. USD 4,02 2,55
Seite: Zurück 1 | 2 | 3 | 4 | 5 | 6 | 7 | 8 | 9 | ... | 34 Weiter
* Die angezeigten Daten für Dividende und Rendite beziehen sich auf das Geschäftsjahr, für das die Hauptversammlung abgehalten wurde. Falls noch kein Jahresabschluss für das Geschäftsjahr vorliegt, werden ggf. Schätzwerte verwendet.